sensor_id;sensor_type;location;lat;lon;timestamp;pressure;altitude;pressure_sealevel;temperature;humidity
28167;BME280;15455;53.376;-6.262;2023-07-29T00:02:17;99839.16;;;12.64;100.00
28167;BME280;15455;53.376;-6.262;2023-07-29T00:05:03;99834.81;;;12.63;100.00
28167;BME280;15455;53.376;-6.262;2023-07-29T00:07:49;99838.34;;;12.61;100.00
28167;BME280;15455;53.376;-6.262;2023-07-29T00:10:38;99834.13;;;12.57;100.00
28167;BME280;15455;53.376;-6.262;2023-07-29T00:13:23;99828.22;;;12.48;100.00
28167;BME280;15455;53.376;-6.262;2023-07-29T00:16:09;99824.06;;;12.40;100.00
28167;BME280;15455;53.376;-6.262;2023-07-29T00:18:55;99819.94;;;12.31;100.00
28167;BME280;15455;53.376;-6.262;2023-07-29T00:21:40;99820.03;;;12.26;100.00
28167;BME280;15455;53.376;-6.262;2023-07-29T00:24:26;99821.00;;;12.22;100.00
28167;BME280;15455;53.376;-6.262;2023-07-29T00:27:12;99816.78;;;12.16;100.00
28167;BME280;15455;53.376;-6.262;2023-07-29T00:29:57;99821.22;;;12.13;100.00
28167;BME280;15455;53.376;-6.262;2023-07-29T00:32:42;99823.09;;;12.08;100.00
28167;BME280;15455;53.376;-6.262;2023-07-29T00:35:30;99816.28;;;12.01;100.00
28167;BME280;15455;53.376;-6.262;2023-07-29T00:38:18;99826.88;;;11.96;100.00
28167;BME280;15455;53.376;-6.262;2023-07-29T00:41:04;99829.50;;;11.93;100.00
28167;BME280;15455;53.376;-6.262;2023-07-29T00:43:50;99830.44;;;11.90;100.00
28167;BME280;15455;53.376;-6.262;2023-07-29T00:46:37;99827.88;;;11.89;100.00
28167;BME280;15455;53.376;-6.262;2023-07-29T00:49:24;99839.09;;;11.92;100.00
28167;BME280;15455;53.376;-6.262;2023-07-29T00:52:10;99836.44;;;11.95;100.00
28167;BME280;15455;53.376;-6.262;2023-07-29T00:54:58;99833.00;;;11.93;100.00
28167;BME280;15455;53.376;-6.262;2023-07-29T00:57:43;99826.13;;;11.88;100.00
28167;BME280;15455;53.376;-6.262;2023-07-29T01:00:33;99827.97;;;11.82;100.00
28167;BME280;15455;53.376;-6.262;2023-07-29T01:03:21;99822.91;;;11.76;100.00
28167;BME280;15455;53.376;-6.262;2023-07-29T01:09:39;99839.09;;;11.94;100.00
28167;BME280;15455;53.376;-6.262;2023-07-29T01:12:42;99836.09;;;12.11;100.00
28167;BME280;15455;53.376;-6.262;2023-07-29T01:15:36;99836.59;;;12.27;100.00
28167;BME280;15455;53.376;-6.262;2023-07-29T01:18:32;99843.34;;;12.36;100.00
28167;BME280;15455;53.376;-6.262;2023-07-29T01:21:21;99843.06;;;12.46;100.00
28167;BME280;15455;53.376;-6.262;2023-07-29T01:24:06;99839.41;;;12.54;100.00
28167;BME280;15455;53.376;-6.262;2023-07-29T01:26:52;99835.72;;;12.62;100.00
28167;BME280;15455;53.376;-6.262;2023-07-29T01:29:38;99823.34;;;12.67;100.00
28167;BME280;15455;53.376;-6.262;2023-07-29T01:32:49;99818.88;;;12.73;100.00
28167;BME280;15455;53.376;-6.262;2023-07-29T01:35:42;99816.13;;;12.77;100.00
28167;BME280;15455;53.376;-6.262;2023-07-29T01:38:33;99813.59;;;12.74;100.00
28167;BME280;15455;53.376;-6.262;2023-07-29T01:41:20;99809.28;;;12.72;100.00
28167;BME280;15455;53.376;-6.262;2023-07-29T01:44:07;99808.59;;;12.65;100.00
28167;BME280;15455;53.376;-6.262;2023-07-29T01:46:55;99800.91;;;12.59;100.00
28167;BME280;15455;53.376;-6.262;2023-07-29T01:49:41;99795.06;;;12.47;100.00
28167;BME280;15455;53.376;-6.262;2023-07-29T01:52:26;99798.88;;;12.36;100.00
28167;BME280;15455;53.376;-6.262;2023-07-29T01:55:12;99796.50;;;12.26;100.00
28167;BME280;15455;53.376;-6.262;2023-07-29T01:57:58;99802.66;;;12.24;100.00
28167;BME280;15455;53.376;-6.262;2023-07-29T02:00:44;99804.50;;;12.19;100.00
28167;BME280;15455;53.376;-6.262;2023-07-29T02:03:29;99802.88;;;12.14;100.00
28167;BME280;15455;53.376;-6.262;2023-07-29T02:06:15;99798.69;;;12.07;100.00
28167;BME280;15455;53.376;-6.262;2023-07-29T02:09:00;99809.13;;;12.07;100.00
28167;BME280;15455;53.376;-6.262;2023-07-29T02:11:46;99804.06;;;12.01;100.00
28167;BME280;15455;53.376;-6.262;2023-07-29T02:14:31;99810.34;;;11.94;100.00
28167;BME280;15455;53.376;-6.262;2023-07-29T02:17:17;99811.19;;;11.93;100.00
28167;BME280;15455;53.376;-6.262;2023-07-29T02:20:03;99813.81;;;11.93;100.00
28167;BME280;15455;53.376;-6.262;2023-07-29T02:22:49;99822.59;;;11.90;100.00
28167;BME280;15455;53.376;-6.262;2023-07-29T02:25:37;99826.28;;;11.80;100.00
28167;BME280;15455;53.376;-6.262;2023-07-29T02:28:23;99825.59;;;11.73;100.00
28167;BME280;15455;53.376;-6.262;2023-07-29T02:31:13;99830.88;;;11.70;100.00
28167;BME280;15455;53.376;-6.262;2023-07-29T02:33:59;99830.97;;;11.65;100.00
28167;BME280;15455;53.376;-6.262;2023-07-29T02:36:44;99828.50;;;11.59;100.00
28167;BME280;15455;53.376;-6.262;2023-07-29T02:39:31;99826.75;;;11.60;100.00
28167;BME280;15455;53.376;-6.262;2023-07-29T02:42:16;99828.53;;;11.58;100.00
28167;BME280;15455;53.376;-6.262;2023-07-29T02:45:02;99824.22;;;11.55;100.00
28167;BME280;15455;53.376;-6.262;2023-07-29T02:47:47;99825.97;;;11.55;100.00
28167;BME280;15455;53.376;-6.262;2023-07-29T02:50:34;99828.56;;;11.56;100.00
28167;BME280;15455;53.376;-6.262;2023-07-29T02:53:20;99828.50;;;11.59;100.00
28167;BME280;15455;53.376;-6.262;2023-07-29T02:56:05;99818.88;;;11.61;100.00
28167;BME280;15455;53.376;-6.262;2023-07-29T02:58:54;99819.81;;;11.59;100.00
28167;BME280;15455;53.376;-6.262;2023-07-29T03:01:40;99808.50;;;11.57;100.00
28167;BME280;15455;53.376;-6.262;2023-07-29T03:04:26;99818.13;;;11.55;100.00
28167;BME280;15455;53.376;-6.262;2023-07-29T03:07:11;99811.25;;;11.51;100.00
28167;BME280;15455;53.376;-6.262;2023-07-29T03:09:57;99809.66;;;11.43;100.00
28167;BME280;15455;53.376;-6.262;2023-07-29T03:12:42;99801.88;;;11.42;100.00
28167;BME280;15455;53.376;-6.262;2023-07-29T03:15:27;99797.59;;;11.38;100.00
28167;BME280;15455;53.376;-6.262;2023-07-29T03:18:13;99796.03;;;11.29;100.00
28167;BME280;15455;53.376;-6.262;2023-07-29T03:20:58;99799.53;;;11.29;100.00
28167;BME280;15455;53.376;-6.262;2023-07-29T03:23:44;99800.38;;;11.30;100.00
28167;BME280;15455;53.376;-6.262;2023-07-29T03:26:29;99793.44;;;11.27;100.00
28167;BME280;15455;53.376;-6.262;2023-07-29T03:29:15;99793.56;;;11.23;100.00
28167;BME280;15455;53.376;-6.262;2023-07-29T03:32:00;99795.44;;;11.15;100.00
28167;BME280;15455;53.376;-6.262;2023-07-29T03:34:46;99796.47;;;11.07;100.00
28167;BME280;15455;53.376;-6.262;2023-07-29T03:37:32;99801.00;;;10.99;100.00
28167;BME280;15455;53.376;-6.262;2023-07-29T03:40:17;99795.91;;;10.91;100.00
28167;BME280;15455;53.376;-6.262;2023-07-29T03:43:03;99795.06;;;10.91;100.00
28167;BME280;15455;53.376;-6.262;2023-07-29T03:45:49;99793.47;;;10.84;100.00
28167;BME280;15455;53.376;-6.262;2023-07-29T03:48:35;99802.06;;;10.87;100.00
28167;BME280;15455;53.376;-6.262;2023-07-29T03:51:21;99805.47;;;10.92;100.00
28167;BME280;15455;53.376;-6.262;2023-07-29T03:54:07;99797.63;;;10.92;100.00
28167;BME280;15455;53.376;-6.262;2023-07-29T03:56:53;99795.97;;;10.88;100.00
28167;BME280;15455;53.376;-6.262;2023-07-29T03:59:38;99802.09;;;10.86;100.00
28167;BME280;15455;53.376;-6.262;2023-07-29T04:02:24;99793.56;;;10.79;100.00
28167;BME280;15455;53.376;-6.262;2023-07-29T04:05:10;99790.19;;;10.72;100.00
28167;BME280;15455;53.376;-6.262;2023-07-29T04:07:55;99798.91;;;10.71;100.00
28167;BME280;15455;53.376;-6.262;2023-07-29T04:10:41;99800.69;;;10.69;100.00
28167;BME280;15455;53.376;-6.262;2023-07-29T04:13:26;99811.03;;;10.74;100.00
28167;BME280;15455;53.376;-6.262;2023-07-29T04:16:12;99808.44;;;10.72;100.00
28167;BME280;15455;53.376;-6.262;2023-07-29T04:18:58;99796.31;;;10.70;100.00
28167;BME280;15455;53.376;-6.262;2023-07-29T04:21:43;99802.22;;;10.80;100.00
28167;BME280;15455;53.376;-6.262;2023-07-29T04:24:29;99803.03;;;10.85;100.00
28167;BME280;15455;53.376;-6.262;2023-07-29T04:27:14;99802.16;;;10.83;100.00
28167;BME280;15455;53.376;-6.262;2023-07-29T04:30:00;99799.50;;;10.86;100.00
28167;BME280;15455;53.376;-6.262;2023-07-29T04:32:45;99798.50;;;10.93;100.00
28167;BME280;15455;53.376;-6.262;2023-07-29T04:35:33;99798.41;;;10.99;100.00
28167;BME280;15455;53.376;-6.262;2023-07-29T04:38:19;99793.09;;;11.02;100.00
28167;BME280;15455;53.376;-6.262;2023-07-29T04:41:04;99788.69;;;11.04;100.00
28167;BME280;15455;53.376;-6.262;2023-07-29T04:43:52;99796.50;;;11.06;100.00
28167;BME280;15455;53.376;-6.262;2023-07-29T04:46:38;99800.84;;;11.07;100.00
28167;BME280;15455;53.376;-6.262;2023-07-29T04:49:24;99797.38;;;11.05;100.00
28167;BME280;15455;53.376;-6.262;2023-07-29T04:52:09;99813.03;;;11.05;100.00
28167;BME280;15455;53.376;-6.262;2023-07-29T04:54:55;99807.72;;;11.11;100.00
28167;BME280;15455;53.376;-6.262;2023-07-29T04:57:41;99809.41;;;11.15;100.00
28167;BME280;15455;53.376;-6.262;2023-07-29T05:00:27;99801.41;;;11.23;100.00
28167;BME280;15455;53.376;-6.262;2023-07-29T05:03:12;99807.38;;;11.28;100.00
28167;BME280;15455;53.376;-6.262;2023-07-29T05:05:58;99801.13;;;11.35;100.00
28167;BME280;15455;53.376;-6.262;2023-07-29T05:08:46;99794.19;;;11.34;100.00
28167;BME280;15455;53.376;-6.262;2023-07-29T05:11:31;99792.44;;;11.35;100.00
28167;BME280;15455;53.376;-6.262;2023-07-29T05:14:17;99795.09;;;11.33;100.00
28167;BME280;15455;53.376;-6.262;2023-07-29T05:17:03;99795.94;;;11.34;100.00
28167;BME280;15455;53.376;-6.262;2023-07-29T05:19:49;99794.16;;;11.36;100.00
28167;BME280;15455;53.376;-6.262;2023-07-29T05:22:35;99797.56;;;11.39;100.00
28167;BME280;15455;53.376;-6.262;2023-07-29T05:25:20;99789.53;;;11.49;100.00
28167;BME280;15455;53.376;-6.262;2023-07-29T05:28:05;99789.28;;;11.59;100.00
28167;BME280;15455;53.376;-6.262;2023-07-29T05:30:51;99782.09;;;11.69;100.00
28167;BME280;15455;53.376;-6.262;2023-07-29T05:33:37;99771.44;;;11.78;100.00
28167;BME280;15455;53.376;-6.262;2023-07-29T05:36:24;99764.34;;;11.84;100.00
28167;BME280;15455;53.376;-6.262;2023-07-29T05:39:10;99766.03;;;11.86;100.00
28167;BME280;15455;53.376;-6.262;2023-07-29T05:41:57;99769.50;;;11.87;100.00
28167;BME280;15455;53.376;-6.262;2023-07-29T05:44:43;99758.94;;;11.91;100.00
28167;BME280;15455;53.376;-6.262;2023-07-29T05:47:30;99758.84;;;11.97;100.00
28167;BME280;15455;53.376;-6.262;2023-07-29T05:50:16;99759.53;;;12.04;100.00
28167;BME280;15455;53.376;-6.262;2023-07-29T05:53:01;99760.38;;;12.06;100.00
28167;BME280;15455;53.376;-6.262;2023-07-29T05:55:47;99754.22;;;12.07;100.00
28167;BME280;15455;53.376;-6.262;2023-07-29T05:58:33;99755.91;;;12.10;100.00
28167;BME280;15455;53.376;-6.262;2023-07-29T06:01:18;99773.28;;;12.12;100.00
28167;BME280;15455;53.376;-6.262;2023-07-29T06:04:07;99755.63;;;12.22;100.00
28167;BME280;15455;53.376;-6.262;2023-07-29T06:06:52;99752.75;;;12.31;100.00
28167;BME280;15455;53.376;-6.262;2023-07-29T06:09:39;99747.16;;;12.45;100.00
28167;BME280;15455;53.376;-6.262;2023-07-29T06:12:25;99739.09;;;12.53;100.00
28167;BME280;15455;53.376;-6.262;2023-07-29T06:15:11;99739.00;;;12.56;100.00
28167;BME280;15455;53.376;-6.262;2023-07-29T06:17:57;99746.88;;;12.56;100.00
28167;BME280;15455;53.376;-6.262;2023-07-29T06:20:43;99753.78;;;12.59;100.00
28167;BME280;15455;53.376;-6.262;2023-07-29T06:23:28;99753.66;;;12.63;100.00
28167;BME280;15455;53.376;-6.262;2023-07-29T06:26:14;99760.50;;;12.69;100.00
28167;BME280;15455;53.376;-6.262;2023-07-29T06:29:00;99748.16;;;12.74;100.00
28167;BME280;15455;53.376;-6.262;2023-07-29T06:31:45;99760.31;;;12.75;100.00
28167;BME280;15455;53.376;-6.262;2023-07-29T06:34:30;99743.63;;;12.79;100.00
28167;BME280;15455;53.376;-6.262;2023-07-29T06:37:16;99751.34;;;12.84;100.00
28167;BME280;15455;53.376;-6.262;2023-07-29T06:40:02;99749.56;;;12.86;100.00
28167;BME280;15455;53.376;-6.262;2023-07-29T06:42:48;99759.09;;;12.89;100.00
28167;BME280;15455;53.376;-6.262;2023-07-29T06:45:34;99757.22;;;12.92;100.00
28167;BME280;15455;53.376;-6.262;2023-07-29T06:48:20;99754.53;;;12.95;100.00
28167;BME280;15455;53.376;-6.262;2023-07-29T06:51:05;99767.47;;;13.01;100.00
28167;BME280;15455;53.376;-6.262;2023-07-29T06:53:51;99753.34;;;13.07;100.00
28167;BME280;15455;53.376;-6.262;2023-07-29T06:56:36;99761.84;;;13.14;100.00
28167;BME280;15455;53.376;-6.262;2023-07-29T06:59:22;99766.16;;;13.16;100.00
28167;BME280;15455;53.376;-6.262;2023-07-29T07:02:10;99768.59;;;13.23;100.00
28167;BME280;15455;53.376;-6.262;2023-07-29T07:04:55;99775.50;;;13.25;100.00
28167;BME280;15455;53.376;-6.262;2023-07-29T07:07:41;99771.06;;;13.27;100.00
28167;BME280;15455;53.376;-6.262;2023-07-29T07:10:27;99764.84;;;13.31;100.00
28167;BME280;15455;53.376;-6.262;2023-07-29T07:13:13;99773.53;;;13.33;100.00
28167;BME280;15455;53.376;-6.262;2023-07-29T07:15:58;99768.19;;;13.38;100.00
28167;BME280;15455;53.376;-6.262;2023-07-29T07:18:43;99770.59;;;13.44;100.00
28167;BME280;15455;53.376;-6.262;2023-07-29T07:21:29;99758.28;;;13.48;100.00
28167;BME280;15455;53.376;-6.262;2023-07-29T07:24:14;99755.63;;;13.49;100.00
28167;BME280;15455;53.376;-6.262;2023-07-29T07:26:59;99746.75;;;13.53;100.00
28167;BME280;15455;53.376;-6.262;2023-07-29T07:29:45;99757.19;;;13.55;100.00
28167;BME280;15455;53.376;-6.262;2023-07-29T07:32:30;99759.72;;;13.58;100.00
28167;BME280;15455;53.376;-6.262;2023-07-29T07:35:16;99763.91;;;13.64;100.00
28167;BME280;15455;53.376;-6.262;2023-07-29T07:38:01;99756.66;;;13.72;100.00
28167;BME280;15455;53.376;-6.262;2023-07-29T07:40:56;99765.13;;;13.80;100.00
28167;BME280;15455;53.376;-6.262;2023-07-29T07:43:41;99764.94;;;13.86;100.00
28167;BME280;15455;53.376;-6.262;2023-07-29T07:46:28;99763.84;;;13.94;100.00
28167;BME280;15455;53.376;-6.262;2023-07-29T07:49:14;99762.72;;;14.01;100.00
28167;BME280;15455;53.376;-6.262;2023-07-29T07:52:00;99769.59;;;14.05;100.00
28167;BME280;15455;53.376;-6.262;2023-07-29T07:54:45;99773.72;;;14.12;100.00
28167;BME280;15455;53.376;-6.262;2023-07-29T07:57:31;99763.06;;;14.17;100.00
28167;BME280;15455;53.376;-6.262;2023-07-29T08:00:16;99776.13;;;14.20;100.00
28167;BME280;15455;53.376;-6.262;2023-07-29T08:03:03;99784.69;;;14.25;100.00
28167;BME280;15455;53.376;-6.262;2023-07-29T08:05:49;99778.53;;;14.26;100.00
28167;BME280;15455;53.376;-6.262;2023-07-29T08:08:35;99776.81;;;14.25;100.00
28167;BME280;15455;53.376;-6.262;2023-07-29T08:11:20;99774.13;;;14.27;100.00
28167;BME280;15455;53.376;-6.262;2023-07-29T08:14:05;99781.78;;;14.34;100.00
28167;BME280;15455;53.376;-6.262;2023-07-29T08:16:51;99785.97;;;14.38;100.00
28167;BME280;15455;53.376;-6.262;2023-07-29T08:19:37;99790.34;;;14.39;100.00
28167;BME280;15455;53.376;-6.262;2023-07-29T08:22:22;99781.44;;;14.44;100.00
28167;BME280;15455;53.376;-6.262;2023-07-29T08:25:08;99783.91;;;14.48;100.00
28167;BME280;15455;53.376;-6.262;2023-07-29T08:27:53;99780.44;;;14.48;100.00
28167;BME280;15455;53.376;-6.262;2023-07-29T08:30:39;99782.78;;;14.55;100.00
28167;BME280;15455;53.376;-6.262;2023-07-29T08:33:25;99787.84;;;14.62;100.00
28167;BME280;15455;53.376;-6.262;2023-07-29T08:36:11;99774.38;;;14.72;100.00
28167;BME280;15455;53.376;-6.262;2023-07-29T08:38:56;99801.16;;;14.82;100.00
28167;BME280;15455;53.376;-6.262;2023-07-29T08:42:00;99792.03;;;14.92;100.00
28167;BME280;15455;53.376;-6.262;2023-07-29T08:44:49;99793.53;;;15.23;100.00
28167;BME280;15455;53.376;-6.262;2023-07-29T08:47:34;99778.66;;;15.24;100.00
28167;BME280;15455;53.376;-6.262;2023-07-29T08:50:20;99783.91;;;15.24;100.00
28167;BME280;15455;53.376;-6.262;2023-07-29T08:53:07;99791.50;;;15.32;100.00
28167;BME280;15455;53.376;-6.262;2023-07-29T08:55:53;99792.66;;;15.46;100.00
28167;BME280;15455;53.376;-6.262;2023-07-29T08:58:41;99793.88;;;15.61;100.00
28167;BME280;15455;53.376;-6.262;2023-07-29T09:01:28;99783.09;;;15.68;100.00
28167;BME280;15455;53.376;-6.262;2023-07-29T09:04:16;99784.19;;;15.62;100.00
28167;BME280;15455;53.376;-6.262;2023-07-29T09:07:04;99791.31;;;15.60;100.00
28167;BME280;15455;53.376;-6.262;2023-07-29T09:09:51;99782.53;;;15.59;100.00
28167;BME280;15455;53.376;-6.262;2023-07-29T09:12:37;99792.16;;;15.60;100.00
28167;BME280;15455;53.376;-6.262;2023-07-29T09:15:27;99800.91;;;15.61;100.00
28167;BME280;15455;53.376;-6.262;2023-07-29T09:18:19;99798.94;;;15.66;100.00
28167;BME280;15455;53.376;-6.262;2023-07-29T09:21:05;99797.59;;;15.79;100.00
28167;BME280;15455;53.376;-6.262;2023-07-29T09:23:51;99803.78;;;16.01;100.00
28167;BME280;15455;53.376;-6.262;2023-07-29T09:26:37;99788.72;;;16.25;100.00
28167;BME280;15455;53.376;-6.262;2023-07-29T09:29:28;99800.44;;;16.40;100.00
28167;BME280;15455;53.376;-6.262;2023-07-29T09:32:21;99797.94;;;16.57;100.00
28167;BME280;15455;53.376;-6.262;2023-07-29T09:35:10;99789.69;;;16.86;100.00
28167;BME280;15455;53.376;-6.262;2023-07-29T09:37:56;99790.34;;;17.11;100.00
28167;BME280;15455;53.376;-6.262;2023-07-29T09:40:42;99793.63;;;17.35;100.00
28167;BME280;15455;53.376;-6.262;2023-07-29T09:43:35;99798.63;;;17.42;100.00
28167;BME280;15455;53.376;-6.262;2023-07-29T09:46:23;99778.19;;;17.28;100.00
28167;BME280;15455;53.376;-6.262;2023-07-29T09:49:09;99787.28;;;17.21;100.00
28167;BME280;15455;53.376;-6.262;2023-07-29T09:51:55;99782.94;;;17.19;100.00
28167;BME280;15455;53.376;-6.262;2023-07-29T09:54:43;99799.69;;;17.18;100.00
28167;BME280;15455;53.376;-6.262;2023-07-29T09:57:28;99819.31;;;17.11;100.00
28167;BME280;15455;53.376;-6.262;2023-07-29T10:00:15;99829.41;;;16.81;100.00
28167;BME280;15455;53.376;-6.262;2023-07-29T10:03:00;99842.84;;;16.54;100.00
28167;BME280;15455;53.376;-6.262;2023-07-29T10:05:47;99835.47;;;16.20;100.00
28167;BME280;15455;53.376;-6.262;2023-07-29T10:08:33;99845.69;;;16.05;100.00
28167;BME280;15455;53.376;-6.262;2023-07-29T10:11:23;99848.19;;;15.86;100.00
28167;BME280;15455;53.376;-6.262;2023-07-29T10:14:10;99865.13;;;15.79;100.00
28167;BME280;15455;53.376;-6.262;2023-07-29T10:16:57;99862.75;;;15.71;100.00
28167;BME280;15455;53.376;-6.262;2023-07-29T10:19:43;99867.53;;;15.85;100.00
28167;BME280;15455;53.376;-6.262;2023-07-29T10:22:34;99872.88;;;16.06;100.00
28167;BME280;15455;53.376;-6.262;2023-07-29T10:25:24;99869.09;;;16.35;100.00
28167;BME280;15455;53.376;-6.262;2023-07-29T10:28:12;99874.53;;;16.73;100.00
28167;BME280;15455;53.376;-6.262;2023-07-29T10:30:59;99864.91;;;16.94;100.00
28167;BME280;15455;53.376;-6.262;2023-07-29T10:33:45;99852.38;;;16.99;100.00
28167;BME280;15455;53.376;-6.262;2023-07-29T10:36:31;99834.97;;;16.95;100.00
28167;BME280;15455;53.376;-6.262;2023-07-29T10:39:16;99829.16;;;16.87;100.00
28167;BME280;15455;53.376;-6.262;2023-07-29T10:42:05;99828.91;;;16.73;100.00
28167;BME280;15455;53.376;-6.262;2023-07-29T10:44:52;99824.81;;;16.65;100.00
28167;BME280;15455;53.376;-6.262;2023-07-29T10:47:38;99833.84;;;16.60;100.00
28167;BME280;15455;53.376;-6.262;2023-07-29T10:50:24;99830.72;;;16.50;100.00
28167;BME280;15455;53.376;-6.262;2023-07-29T10:53:10;99828.16;;;16.48;100.00
28167;BME280;15455;53.376;-6.262;2023-07-29T10:55:55;99833.50;;;16.67;100.00
28167;BME280;15455;53.376;-6.262;2023-07-29T10:58:43;99833.91;;;16.99;100.00
28167;BME280;15455;53.376;-6.262;2023-07-29T11:01:30;99832.69;;;17.27;100.00
28167;BME280;15455;53.376;-6.262;2023-07-29T11:10:00;99831.13;;;17.23;100.00
28167;BME280;15455;53.376;-6.262;2023-07-29T11:12:48;99827.97;;;17.15;100.00
28167;BME280;15455;53.376;-6.262;2023-07-29T11:15:35;99837.41;;;17.21;100.00
28167;BME280;15455;53.376;-6.262;2023-07-29T11:18:21;99844.84;;;17.11;100.00
28167;BME280;15455;53.376;-6.262;2023-07-29T11:21:07;99844.47;;;16.99;100.00
28167;BME280;15455;53.376;-6.262;2023-07-29T11:23:53;99852.50;;;16.96;100.00
28167;BME280;15455;53.376;-6.262;2023-07-29T11:26:46;99840.91;;;17.00;100.00
28167;BME280;15455;53.376;-6.262;2023-07-29T11:29:32;99855.81;;;17.01;100.00
28167;BME280;15455;53.376;-6.262;2023-07-29T11:32:17;99861.38;;;17.14;100.00
28167;BME280;15455;53.376;-6.262;2023-07-29T11:35:08;99855.25;;;17.14;100.00
28167;BME280;15455;53.376;-6.262;2023-07-29T11:37:55;99867.97;;;17.25;100.00
28167;BME280;15455;53.376;-6.262;2023-07-29T11:41:03;99847.81;;;17.43;100.00
28167;BME280;15455;53.376;-6.262;2023-07-29T11:43:49;99865.69;;;17.76;100.00
28167;BME280;15455;53.376;-6.262;2023-07-29T11:46:34;99839.56;;;18.08;100.00
28167;BME280;15455;53.376;-6.262;2023-07-29T11:49:20;99856.53;;;18.38;100.00
28167;BME280;15455;53.376;-6.262;2023-07-29T11:52:07;99853.22;;;18.52;100.00
28167;BME280;15455;53.376;-6.262;2023-07-29T11:54:54;99853.00;;;18.57;100.00
28167;BME280;15455;53.376;-6.262;2023-07-29T11:57:41;99867.44;;;18.86;100.00
28167;BME280;15455;53.376;-6.262;2023-07-29T12:00:26;99840.81;;;19.07;100.00
28167;BME280;15455;53.376;-6.262;2023-07-29T12:03:12;99845.13;;;19.25;100.00
28167;BME280;15455;53.376;-6.262;2023-07-29T12:05:59;99837.28;;;19.24;100.00
28167;BME280;15455;53.376;-6.262;2023-07-29T12:08:44;99842.28;;;19.13;100.00
28167;BME280;15455;53.376;-6.262;2023-07-29T12:11:30;99850.31;;;18.94;100.00
28167;BME280;15455;53.376;-6.262;2023-07-29T12:14:17;99852.31;;;18.53;100.00
28167;BME280;15455;53.376;-6.262;2023-07-29T12:17:05;99853.47;;;18.83;100.00
28167;BME280;15455;53.376;-6.262;2023-07-29T12:19:54;99837.50;;;19.19;100.00
28167;BME280;15455;53.376;-6.262;2023-07-29T12:22:40;99829.13;;;19.44;100.00
28167;BME280;15455;53.376;-6.262;2023-07-29T12:25:26;99831.22;;;19.87;100.00
28167;BME280;15455;53.376;-6.262;2023-07-29T12:28:12;99834.59;;;20.21;100.00
28167;BME280;15455;53.376;-6.262;2023-07-29T12:30:58;99831.97;;;20.05;100.00
28167;BME280;15455;53.376;-6.262;2023-07-29T12:33:44;99831.56;;;19.81;100.00
28167;BME280;15455;53.376;-6.262;2023-07-29T12:36:47;99830.88;;;19.93;100.00
28167;BME280;15455;53.376;-6.262;2023-07-29T12:39:35;99826.31;;;20.11;100.00
28167;BME280;15455;53.376;-6.262;2023-07-29T12:42:21;99846.06;;;19.90;100.00
28167;BME280;15455;53.376;-6.262;2023-07-29T12:45:06;99827.06;;;19.66;100.00
28167;BME280;15455;53.376;-6.262;2023-07-29T12:47:52;99833.88;;;19.38;100.00
28167;BME280;15455;53.376;-6.262;2023-07-29T12:50:38;99837.63;;;19.34;100.00
28167;BME280;15455;53.376;-6.262;2023-07-29T12:53:24;99823.25;;;19.22;100.00
28167;BME280;15455;53.376;-6.262;2023-07-29T12:56:10;99873.97;;;18.78;100.00
28167;BME280;15455;53.376;-6.262;2023-07-29T12:58:55;99938.28;;;17.45;100.00
28167;BME280;15455;53.376;-6.262;2023-07-29T13:01:41;99947.53;;;16.03;100.00
28167;BME280;15455;53.376;-6.262;2023-07-29T13:04:26;99967.03;;;15.23;100.00
28167;BME280;15455;53.376;-6.262;2023-07-29T13:07:12;99982.22;;;14.88;100.00
28167;BME280;15455;53.376;-6.262;2023-07-29T13:09:57;100011.63;;;15.00;100.00
28167;BME280;15455;53.376;-6.262;2023-07-29T13:12:43;100019.88;;;15.16;100.00
28167;BME280;15455;53.376;-6.262;2023-07-29T13:15:29;100026.03;;;15.41;100.00
28167;BME280;15455;53.376;-6.262;2023-07-29T13:18:14;100021.88;;;15.86;100.00
28167;BME280;15455;53.376;-6.262;2023-07-29T13:21:00;100009.13;;;16.23;100.00
28167;BME280;15455;53.376;-6.262;2023-07-29T13:23:45;100008.75;;;16.56;100.00
28167;BME280;15455;53.376;-6.262;2023-07-29T13:26:31;100001.84;;;16.97;100.00
28167;BME280;15455;53.376;-6.262;2023-07-29T13:29:16;99993.31;;;17.33;100.00
28167;BME280;15455;53.376;-6.262;2023-07-29T13:32:02;99978.19;;;17.78;100.00
28167;BME280;15455;53.376;-6.262;2023-07-29T13:34:48;99951.50;;;17.84;100.00
28167;BME280;15455;53.376;-6.262;2023-07-29T13:37:34;99945.75;;;17.95;100.00
28167;BME280;15455;53.376;-6.262;2023-07-29T13:40:19;99952.38;;;18.42;100.00
28167;BME280;15455;53.376;-6.262;2023-07-29T13:43:05;99930.13;;;18.83;100.00
28167;BME280;15455;53.376;-6.262;2023-07-29T13:45:51;99913.69;;;19.13;100.00
28167;BME280;15455;53.376;-6.262;2023-07-29T13:48:36;99910.22;;;19.46;100.00
28167;BME280;15455;53.376;-6.262;2023-07-29T13:51:22;99911.00;;;19.81;100.00
28167;BME280;15455;53.376;-6.262;2023-07-29T13:54:07;99905.97;;;19.92;100.00
28167;BME280;15455;53.376;-6.262;2023-07-29T13:56:53;99901.34;;;19.80;100.00
28167;BME280;15455;53.376;-6.262;2023-07-29T13:59:39;99914.97;;;19.72;100.00
28167;BME280;15455;53.376;-6.262;2023-07-29T14:02:25;99904.72;;;19.66;100.00
28167;BME280;15455;53.376;-6.262;2023-07-29T14:05:14;99908.94;;;19.53;100.00
28167;BME280;15455;53.376;-6.262;2023-07-29T14:07:59;99903.41;;;19.91;100.00
28167;BME280;15455;53.376;-6.262;2023-07-29T14:10:45;99900.66;;;20.24;100.00
28167;BME280;15455;53.376;-6.262;2023-07-29T14:13:30;99904.44;;;20.20;100.00
28167;BME280;15455;53.376;-6.262;2023-07-29T14:16:16;99907.41;;;20.46;100.00
28167;BME280;15455;53.376;-6.262;2023-07-29T14:19:01;99899.13;;;20.82;100.00
28167;BME280;15455;53.376;-6.262;2023-07-29T14:21:48;99899.13;;;20.82;100.00
28167;BME280;15455;53.376;-6.262;2023-07-29T14:24:33;99900.25;;;20.78;100.00
28167;BME280;15455;53.376;-6.262;2023-07-29T14:27:19;99919.03;;;21.20;100.00
28167;BME280;15455;53.376;-6.262;2023-07-29T14:30:05;99906.25;;;21.41;100.00